sensor_id;sensor_type;location;lat;lon;timestamp;P1;durP1;ratioP1;P2;durP2;ratioP2
769;SDS011;368;48.698;9.116;2023-02-15T00:01:29;33.95;;;25.33;;
769;SDS011;368;48.698;9.116;2023-02-15T00:03:56;39.35;;;25.67;;
769;SDS011;368;48.698;9.116;2023-02-15T00:06:23;36.90;;;25.38;;
769;SDS011;368;48.698;9.116;2023-02-15T00:08:50;35.72;;;24.60;;
769;SDS011;368;48.698;9.116;2023-02-15T00:11:17;38.15;;;27.52;;
769;SDS011;368;48.698;9.116;2023-02-15T00:14:06;37.67;;;24.80;;
769;SDS011;368;48.698;9.116;2023-02-15T00:16:34;31.20;;;24.13;;
769;SDS011;368;48.698;9.116;2023-02-15T00:19:02;34.83;;;26.00;;
769;SDS011;368;48.698;9.116;2023-02-15T00:21:30;30.58;;;23.77;;
769;SDS011;368;48.698;9.116;2023-02-15T00:23:58;34.10;;;24.33;;
769;SDS011;368;48.698;9.116;2023-02-15T00:26:26;35.72;;;25.17;;
769;SDS011;368;48.698;9.116;2023-02-15T00:28:53;33.63;;;23.85;;
769;SDS011;368;48.698;9.116;2023-02-15T00:31:22;34.08;;;25.70;;
769;SDS011;368;48.698;9.116;2023-02-15T00:33:48;35.95;;;27.08;;
769;SDS011;368;48.698;9.116;2023-02-15T00:36:15;35.65;;;25.40;;
769;SDS011;368;48.698;9.116;2023-02-15T00:38:42;34.00;;;24.25;;
769;SDS011;368;48.698;9.116;2023-02-15T00:41:09;37.03;;;25.48;;
769;SDS011;368;48.698;9.116;2023-02-15T00:43:36;37.50;;;23.83;;
769;SDS011;368;48.698;9.116;2023-02-15T00:46:03;37.17;;;26.88;;
769;SDS011;368;48.698;9.116;2023-02-15T00:48:32;32.78;;;24.42;;
769;SDS011;368;48.698;9.116;2023-02-15T00:50:59;37.63;;;25.60;;
769;SDS011;368;48.698;9.116;2023-02-15T00:53:27;36.97;;;26.17;;
769;SDS011;368;48.698;9.116;2023-02-15T00:55:55;31.20;;;24.40;;
769;SDS011;368;48.698;9.116;2023-02-15T00:58:22;34.38;;;24.85;;
769;SDS011;368;48.698;9.116;2023-02-15T01:00:48;33.08;;;25.13;;
769;SDS011;368;48.698;9.116;2023-02-15T01:03:16;35.90;;;25.70;;
769;SDS011;368;48.698;9.116;2023-02-15T01:05:46;32.47;;;24.13;;
769;SDS011;368;48.698;9.116;2023-02-15T01:08:13;35.42;;;23.65;;
769;SDS011;368;48.698;9.116;2023-02-15T01:10:40;33.40;;;23.83;;
769;SDS011;368;48.698;9.116;2023-02-15T01:13:08;36.63;;;24.75;;
769;SDS011;368;48.698;9.116;2023-02-15T01:15:35;37.43;;;24.53;;
769;SDS011;368;48.698;9.116;2023-02-15T01:18:02;33.13;;;23.83;;
769;SDS011;368;48.698;9.116;2023-02-15T01:20:29;28.73;;;22.20;;
769;SDS011;368;48.698;9.116;2023-02-15T01:23:01;34.43;;;23.73;;
769;SDS011;368;48.698;9.116;2023-02-15T01:25:28;31.80;;;22.20;;
769;SDS011;368;48.698;9.116;2023-02-15T01:27:55;30.30;;;21.63;;
769;SDS011;368;48.698;9.116;2023-02-15T01:30:21;36.50;;;23.48;;
769;SDS011;368;48.698;9.116;2023-02-15T01:32:48;31.13;;;23.17;;
769;SDS011;368;48.698;9.116;2023-02-15T01:35:15;30.35;;;22.00;;
769;SDS011;368;48.698;9.116;2023-02-15T01:37:42;28.98;;;21.75;;
769;SDS011;368;48.698;9.116;2023-02-15T01:40:13;33.97;;;24.27;;
769;SDS011;368;48.698;9.116;2023-02-15T01:42:41;28.40;;;21.50;;
769;SDS011;368;48.698;9.116;2023-02-15T01:45:14;32.13;;;22.73;;
769;SDS011;368;48.698;9.116;2023-02-15T01:47:47;32.08;;;22.30;;
769;SDS011;368;48.698;9.116;2023-02-15T01:50:18;30.92;;;23.00;;
769;SDS011;368;48.698;9.116;2023-02-15T01:52:50;32.75;;;24.10;;
769;SDS011;368;48.698;9.116;2023-02-15T01:55:23;30.63;;;22.10;;
769;SDS011;368;48.698;9.116;2023-02-15T01:57:52;30.02;;;22.70;;
769;SDS011;368;48.698;9.116;2023-02-15T02:00:19;29.88;;;22.33;;
769;SDS011;368;48.698;9.116;2023-02-15T02:02:47;32.08;;;22.15;;
769;SDS011;368;48.698;9.116;2023-02-15T02:05:17;28.42;;;21.55;;
769;SDS011;368;48.698;9.116;2023-02-15T02:07:44;33.17;;;24.30;;
769;SDS011;368;48.698;9.116;2023-02-15T02:10:13;30.17;;;22.10;;
769;SDS011;368;48.698;9.116;2023-02-15T02:12:43;30.48;;;20.83;;
769;SDS011;368;48.698;9.116;2023-02-15T02:15:11;27.52;;;22.58;;
769;SDS011;368;48.698;9.116;2023-02-15T02:17:42;25.83;;;22.40;;
769;SDS011;368;48.698;9.116;2023-02-15T02:20:30;23.95;;;20.13;;
769;SDS011;368;48.698;9.116;2023-02-15T02:23:30;28.15;;;21.67;;
769;SDS011;368;48.698;9.116;2023-02-15T02:26:19;31.20;;;22.37;;
769;SDS011;368;48.698;9.116;2023-02-15T02:32:12;30.10;;;21.35;;
769;SDS011;368;48.698;9.116;2023-02-15T02:35:05;29.95;;;22.30;;
769;SDS011;368;48.698;9.116;2023-02-15T02:37:37;31.33;;;22.30;;
769;SDS011;368;48.698;9.116;2023-02-15T02:40:13;29.88;;;21.95;;
769;SDS011;368;48.698;9.116;2023-02-15T02:42:48;28.40;;;21.02;;
769;SDS011;368;48.698;9.116;2023-02-15T02:45:20;27.23;;;21.95;;
769;SDS011;368;48.698;9.116;2023-02-15T02:47:50;29.17;;;21.45;;
769;SDS011;368;48.698;9.116;2023-02-15T02:50:25;27.98;;;20.17;;
769;SDS011;368;48.698;9.116;2023-02-15T02:52:54;28.20;;;22.23;;
769;SDS011;368;48.698;9.116;2023-02-15T02:55:22;30.40;;;20.50;;
769;SDS011;368;48.698;9.116;2023-02-15T02:57:56;31.23;;;21.83;;
769;SDS011;368;48.698;9.116;2023-02-15T03:00:29;27.90;;;21.25;;
769;SDS011;368;48.698;9.116;2023-02-15T03:02:59;25.95;;;20.48;;
769;SDS011;368;48.698;9.116;2023-02-15T03:05:31;31.42;;;22.10;;
769;SDS011;368;48.698;9.116;2023-02-15T03:08:00;27.70;;;21.02;;
769;SDS011;368;48.698;9.116;2023-02-15T03:10:31;27.52;;;22.52;;
769;SDS011;368;48.698;9.116;2023-02-15T03:13:00;26.08;;;20.13;;
769;SDS011;368;48.698;9.116;2023-02-15T03:15:29;25.42;;;20.33;;
769;SDS011;368;48.698;9.116;2023-02-15T03:18:12;30.55;;;22.08;;
769;SDS011;368;48.698;9.116;2023-02-15T03:20:43;32.55;;;23.10;;
769;SDS011;368;48.698;9.116;2023-02-15T03:23:11;29.13;;;22.20;;
769;SDS011;368;48.698;9.116;2023-02-15T03:25:42;30.02;;;21.05;;
769;SDS011;368;48.698;9.116;2023-02-15T03:28:13;30.10;;;22.88;;
769;SDS011;368;48.698;9.116;2023-02-15T03:30:43;31.27;;;22.63;;
769;SDS011;368;48.698;9.116;2023-02-15T03:33:12;27.17;;;21.35;;
769;SDS011;368;48.698;9.116;2023-02-15T03:35:43;26.40;;;22.92;;
769;SDS011;368;48.698;9.116;2023-02-15T03:38:17;28.42;;;21.75;;
769;SDS011;368;48.698;9.116;2023-02-15T03:40:48;27.15;;;21.30;;
769;SDS011;368;48.698;9.116;2023-02-15T03:43:39;29.88;;;20.77;;
769;SDS011;368;48.698;9.116;2023-02-15T03:46:12;32.13;;;24.02;;
769;SDS011;368;48.698;9.116;2023-02-15T03:48:43;34.95;;;25.30;;
769;SDS011;368;48.698;9.116;2023-02-15T03:51:16;34.45;;;24.15;;
769;SDS011;368;48.698;9.116;2023-02-15T03:54:00;35.08;;;24.70;;
769;SDS011;368;48.698;9.116;2023-02-15T03:56:30;31.23;;;23.85;;
769;SDS011;368;48.698;9.116;2023-02-15T03:58:57;32.20;;;24.15;;
769;SDS011;368;48.698;9.116;2023-02-15T04:01:43;34.50;;;23.42;;
769;SDS011;368;48.698;9.116;2023-02-15T04:04:24;31.83;;;21.80;;
769;SDS011;368;48.698;9.116;2023-02-15T04:06:55;30.58;;;22.35;;
769;SDS011;368;48.698;9.116;2023-02-15T04:09:22;29.38;;;22.92;;
769;SDS011;368;48.698;9.116;2023-02-15T04:12:07;28.98;;;22.65;;
769;SDS011;368;48.698;9.116;2023-02-15T04:14:34;28.40;;;22.83;;
769;SDS011;368;48.698;9.116;2023-02-15T04:17:19;29.17;;;22.73;;
769;SDS011;368;48.698;9.116;2023-02-15T04:19:46;27.67;;;21.17;;
769;SDS011;368;48.698;9.116;2023-02-15T04:22:31;29.90;;;21.27;;
769;SDS011;368;48.698;9.116;2023-02-15T04:25:16;32.42;;;23.35;;
769;SDS011;368;48.698;9.116;2023-02-15T04:27:44;25.05;;;20.27;;
769;SDS011;368;48.698;9.116;2023-02-15T04:30:13;29.67;;;23.27;;
769;SDS011;368;48.698;9.116;2023-02-15T04:32:41;33.10;;;21.90;;
769;SDS011;368;48.698;9.116;2023-02-15T04:35:08;31.00;;;23.80;;
769;SDS011;368;48.698;9.116;2023-02-15T04:37:36;26.73;;;20.35;;
769;SDS011;368;48.698;9.116;2023-02-15T04:40:04;28.35;;;20.58;;
769;SDS011;368;48.698;9.116;2023-02-15T04:42:33;28.42;;;20.95;;
769;SDS011;368;48.698;9.116;2023-02-15T04:45:00;34.83;;;23.75;;
769;SDS011;368;48.698;9.116;2023-02-15T04:47:26;29.17;;;21.40;;
769;SDS011;368;48.698;9.116;2023-02-15T04:49:53;28.25;;;21.70;;
769;SDS011;368;48.698;9.116;2023-02-15T04:52:20;31.85;;;21.50;;
769;SDS011;368;48.698;9.116;2023-02-15T04:54:48;28.95;;;21.65;;
769;SDS011;368;48.698;9.116;2023-02-15T04:57:15;26.45;;;20.70;;
769;SDS011;368;48.698;9.116;2023-02-15T04:59:42;29.83;;;23.02;;
769;SDS011;368;48.698;9.116;2023-02-15T05:02:08;28.55;;;20.50;;
769;SDS011;368;48.698;9.116;2023-02-15T05:04:35;26.25;;;20.88;;
769;SDS011;368;48.698;9.116;2023-02-15T05:07:02;27.88;;;19.58;;
769;SDS011;368;48.698;9.116;2023-02-15T05:09:29;29.35;;;21.00;;
769;SDS011;368;48.698;9.116;2023-02-15T05:11:57;26.65;;;19.33;;
769;SDS011;368;48.698;9.116;2023-02-15T05:14:24;24.42;;;19.35;;
769;SDS011;368;48.698;9.116;2023-02-15T05:16:50;30.02;;;21.00;;
769;SDS011;368;48.698;9.116;2023-02-15T05:19:18;30.23;;;22.10;;
769;SDS011;368;48.698;9.116;2023-02-15T05:21:45;27.00;;;20.02;;
769;SDS011;368;48.698;9.116;2023-02-15T05:24:12;29.65;;;21.23;;
769;SDS011;368;48.698;9.116;2023-02-15T05:26:58;32.58;;;23.90;;
769;SDS011;368;48.698;9.116;2023-02-15T05:29:50;30.13;;;22.70;;
769;SDS011;368;48.698;9.116;2023-02-15T05:32:17;42.28;;;30.88;;
769;SDS011;368;48.698;9.116;2023-02-15T05:34:44;47.00;;;34.13;;
769;SDS011;368;48.698;9.116;2023-02-15T05:37:10;48.80;;;34.05;;
769;SDS011;368;48.698;9.116;2023-02-15T05:39:37;43.92;;;34.22;;
769;SDS011;368;48.698;9.116;2023-02-15T05:42:05;42.08;;;30.80;;
769;SDS011;368;48.698;9.116;2023-02-15T05:44:32;42.35;;;30.85;;
769;SDS011;368;48.698;9.116;2023-02-15T05:46:59;32.85;;;22.83;;
769;SDS011;368;48.698;9.116;2023-02-15T05:49:27;40.72;;;27.30;;
769;SDS011;368;48.698;9.116;2023-02-15T05:51:55;32.85;;;24.90;;
769;SDS011;368;48.698;9.116;2023-02-15T05:54:22;31.83;;;24.65;;
769;SDS011;368;48.698;9.116;2023-02-15T05:56:49;32.72;;;26.25;;
769;SDS011;368;48.698;9.116;2023-02-15T05:59:17;35.35;;;25.98;;
769;SDS011;368;48.698;9.116;2023-02-15T06:01:43;37.75;;;31.40;;
769;SDS011;368;48.698;9.116;2023-02-15T06:04:10;41.92;;;30.88;;
769;SDS011;368;48.698;9.116;2023-02-15T06:06:38;39.72;;;29.88;;
769;SDS011;368;48.698;9.116;2023-02-15T06:09:05;40.75;;;28.20;;
769;SDS011;368;48.698;9.116;2023-02-15T06:11:31;39.15;;;29.42;;
769;SDS011;368;48.698;9.116;2023-02-15T06:13:58;35.22;;;27.02;;
769;SDS011;368;48.698;9.116;2023-02-15T06:16:26;31.00;;;23.73;;
769;SDS011;368;48.698;9.116;2023-02-15T06:18:53;37.95;;;26.58;;
769;SDS011;368;48.698;9.116;2023-02-15T06:21:20;33.60;;;24.30;;
769;SDS011;368;48.698;9.116;2023-02-15T06:23:47;34.80;;;27.23;;
769;SDS011;368;48.698;9.116;2023-02-15T06:26:13;29.90;;;23.00;;
769;SDS011;368;48.698;9.116;2023-02-15T06:28:40;29.45;;;23.85;;
769;SDS011;368;48.698;9.116;2023-02-15T06:31:07;32.05;;;25.27;;
769;SDS011;368;48.698;9.116;2023-02-15T06:33:35;32.83;;;24.95;;
769;SDS011;368;48.698;9.116;2023-02-15T06:36:03;34.03;;;25.60;;
769;SDS011;368;48.698;9.116;2023-02-15T06:38:30;27.13;;;22.27;;
769;SDS011;368;48.698;9.116;2023-02-15T06:40:57;28.30;;;22.05;;
769;SDS011;368;48.698;9.116;2023-02-15T06:43:24;29.70;;;22.38;;
769;SDS011;368;48.698;9.116;2023-02-15T06:45:51;31.60;;;22.80;;
769;SDS011;368;48.698;9.116;2023-02-15T06:48:17;25.90;;;20.45;;
769;SDS011;368;48.698;9.116;2023-02-15T06:50:45;31.90;;;23.95;;
769;SDS011;368;48.698;9.116;2023-02-15T06:53:12;29.27;;;21.90;;
769;SDS011;368;48.698;9.116;2023-02-15T06:55:39;97.75;;;50.53;;
769;SDS011;368;48.698;9.116;2023-02-15T06:58:06;145.40;;;82.13;;
769;SDS011;368;48.698;9.116;2023-02-15T07:00:33;41.95;;;29.10;;
769;SDS011;368;48.698;9.116;2023-02-15T07:02:59;50.55;;;31.20;;
769;SDS011;368;48.698;9.116;2023-02-15T07:05:27;33.92;;;27.73;;
769;SDS011;368;48.698;9.116;2023-02-15T07:07:57;33.92;;;27.27;;
769;SDS011;368;48.698;9.116;2023-02-15T07:10:24;36.03;;;27.60;;
769;SDS011;368;48.698;9.116;2023-02-15T07:12:52;31.48;;;24.52;;
769;SDS011;368;48.698;9.116;2023-02-15T07:15:18;30.60;;;25.83;;
769;SDS011;368;48.698;9.116;2023-02-15T07:17:47;32.78;;;25.23;;
769;SDS011;368;48.698;9.116;2023-02-15T07:20:15;28.55;;;25.23;;
769;SDS011;368;48.698;9.116;2023-02-15T07:22:45;29.38;;;22.80;;
769;SDS011;368;48.698;9.116;2023-02-15T07:25:13;32.65;;;25.60;;
769;SDS011;368;48.698;9.116;2023-02-15T07:27:41;29.63;;;24.13;;
769;SDS011;368;48.698;9.116;2023-02-15T07:30:10;39.42;;;32.08;;
769;SDS011;368;48.698;9.116;2023-02-15T07:32:38;33.00;;;26.60;;
769;SDS011;368;48.698;9.116;2023-02-15T07:35:25;31.25;;;25.17;;
769;SDS011;368;48.698;9.116;2023-02-15T07:37:52;29.02;;;22.83;;
769;SDS011;368;48.698;9.116;2023-02-15T07:40:21;30.33;;;22.13;;
769;SDS011;368;48.698;9.116;2023-02-15T07:42:50;33.75;;;23.98;;
769;SDS011;368;48.698;9.116;2023-02-15T07:45:19;30.70;;;22.92;;
769;SDS011;368;48.698;9.116;2023-02-15T07:47:47;26.13;;;22.60;;
769;SDS011;368;48.698;9.116;2023-02-15T07:50:13;33.22;;;23.33;;
769;SDS011;368;48.698;9.116;2023-02-15T07:52:40;28.95;;;23.27;;
769;SDS011;368;48.698;9.116;2023-02-15T07:55:07;29.88;;;22.50;;
769;SDS011;368;48.698;9.116;2023-02-15T07:57:39;33.70;;;24.07;;
769;SDS011;368;48.698;9.116;2023-02-15T08:00:09;26.03;;;21.40;;
769;SDS011;368;48.698;9.116;2023-02-15T08:02:38;35.40;;;25.92;;
769;SDS011;368;48.698;9.116;2023-02-15T08:05:05;32.17;;;25.47;;
769;SDS011;368;48.698;9.116;2023-02-15T08:07:32;37.83;;;30.10;;
769;SDS011;368;48.698;9.116;2023-02-15T08:09:59;32.97;;;28.03;;
769;SDS011;368;48.698;9.116;2023-02-15T08:12:26;31.43;;;25.67;;
769;SDS011;368;48.698;9.116;2023-02-15T08:14:54;37.58;;;28.67;;
769;SDS011;368;48.698;9.116;2023-02-15T08:17:21;54.10;;;38.47;;
769;SDS011;368;48.698;9.116;2023-02-15T08:19:48;50.28;;;35.85;;
769;SDS011;368;48.698;9.116;2023-02-15T08:22:15;48.20;;;35.00;;
769;SDS011;368;48.698;9.116;2023-02-15T08:24:42;47.60;;;35.20;;
769;SDS011;368;48.698;9.116;2023-02-15T08:27:09;31.90;;;26.13;;
769;SDS011;368;48.698;9.116;2023-02-15T08:29:37;28.87;;;24.33;;
769;SDS011;368;48.698;9.116;2023-02-15T08:32:06;28.23;;;23.50;;
769;SDS011;368;48.698;9.116;2023-02-15T08:34:35;25.67;;;22.27;;
769;SDS011;368;48.698;9.116;2023-02-15T08:37:04;29.03;;;22.83;;
769;SDS011;368;48.698;9.116;2023-02-15T08:39:31;26.47;;;21.23;;
769;SDS011;368;48.698;9.116;2023-02-15T08:41:58;28.90;;;23.57;;
769;SDS011;368;48.698;9.116;2023-02-15T08:44:25;25.07;;;21.27;;
769;SDS011;368;48.698;9.116;2023-02-15T08:46:52;25.77;;;21.80;;
769;SDS011;368;48.698;9.116;2023-02-15T08:49:21;32.30;;;23.17;;
769;SDS011;368;48.698;9.116;2023-02-15T08:51:49;27.67;;;23.30;;
769;SDS011;368;48.698;9.116;2023-02-15T08:54:16;27.97;;;21.67;;
769;SDS011;368;48.698;9.116;2023-02-15T08:56:44;24.47;;;21.37;;
769;SDS011;368;48.698;9.116;2023-02-15T08:59:12;23.00;;;20.30;;
769;SDS011;368;48.698;9.116;2023-02-15T09:01:41;25.00;;;21.47;;
769;SDS011;368;48.698;9.116;2023-02-15T09:04:08;29.20;;;21.40;;
769;SDS011;368;48.698;9.116;2023-02-15T09:06:37;21.93;;;19.33;;
769;SDS011;368;48.698;9.116;2023-02-15T09:09:04;23.77;;;18.07;;
769;SDS011;368;48.698;9.116;2023-02-15T09:11:33;25.93;;;19.07;;
769;SDS011;368;48.698;9.116;2023-02-15T09:14:02;25.10;;;17.87;;
769;SDS011;368;48.698;9.116;2023-02-15T09:16:31;25.10;;;18.60;;
769;SDS011;368;48.698;9.116;2023-02-15T09:18:59;18.33;;;16.00;;
769;SDS011;368;48.698;9.116;2023-02-15T09:21:27;19.37;;;13.37;;
769;SDS011;368;48.698;9.116;2023-02-15T09:23:57;19.30;;;15.10;;
769;SDS011;368;48.698;9.116;2023-02-15T09:26:26;15.80;;;13.47;;
769;SDS011;368;48.698;9.116;2023-02-15T09:28:55;17.17;;;13.33;;
769;SDS011;368;48.698;9.116;2023-02-15T09:31:24;20.03;;;14.73;;
769;SDS011;368;48.698;9.116;2023-02-15T09:33:52;19.23;;;14.67;;
769;SDS011;368;48.698;9.116;2023-02-15T09:36:20;19.37;;;15.00;;
769;SDS011;368;48.698;9.116;2023-02-15T09:38:52;16.97;;;13.30;;
769;SDS011;368;48.698;9.116;2023-02-15T09:44:30;18.47;;;13.30;;
769;SDS011;368;48.698;9.116;2023-02-15T09:47:13;17.50;;;13.43;;
769;SDS011;368;48.698;9.116;2023-02-15T09:50:00;15.43;;;12.30;;
769;SDS011;368;48.698;9.116;2023-02-15T09:52:37;17.90;;;14.87;;
769;SDS011;368;48.698;9.116;2023-02-15T09:55:26;14.40;;;11.83;;
769;SDS011;368;48.698;9.116;2023-02-15T09:58:05;17.73;;;14.00;;
769;SDS011;368;48.698;9.116;2023-02-15T10:00:40;14.67;;;13.03;;
769;SDS011;368;48.698;9.116;2023-02-15T10:03:19;18.60;;;13.10;;
769;SDS011;368;48.698;9.116;2023-02-15T10:06:10;15.20;;;12.70;;
769;SDS011;368;48.698;9.116;2023-02-15T10:09:03;13.30;;;10.20;;
769;SDS011;368;48.698;9.116;2023-02-15T10:11:56;15.03;;;10.83;;
769;SDS011;368;48.698;9.116;2023-02-15T10:17:41;10.80;;;9.70;;
769;SDS011;368;48.698;9.116;2023-02-15T10:20:22;12.37;;;9.87;;
769;SDS011;368;48.698;9.116;2023-02-15T10:22:59;12.30;;;10.60;;
769;SDS011;368;48.698;9.116;2023-02-15T10:25:49;10.93;;;9.63;;
769;SDS011;368;48.698;9.116;2023-02-15T10:28:23;9.90;;;9.00;;
769;SDS011;368;48.698;9.116;2023-02-15T10:30:54;10.33;;;8.70;;
769;SDS011;368;48.698;9.116;2023-02-15T10:33:34;8.97;;;8.10;;
769;SDS011;368;48.698;9.116;2023-02-15T10:36:08;10.40;;;9.27;;
769;SDS011;368;48.698;9.116;2023-02-15T10:38:50;11.67;;;8.67;;
769;SDS011;368;48.698;9.116;2023-02-15T10:41:29;8.40;;;7.60;;
769;SDS011;368;48.698;9.116;2023-02-15T10:44:05;10.93;;;9.30;;
769;SDS011;368;48.698;9.116;2023-02-15T10:46:47;10.23;;;9.13;;
769;SDS011;368;48.698;9.116;2023-02-15T10:49:30;9.13;;;8.23;;
769;SDS011;368;48.698;9.116;2023-02-15T10:52:14;13.00;;;9.00;;
769;SDS011;368;48.698;9.116;2023-02-15T10:54:48;11.63;;;9.03;;
769;SDS011;368;48.698;9.116;2023-02-15T10:57:22;11.17;;;10.07;;
769;SDS011;368;48.698;9.116;2023-02-15T10:59:58;16.43;;;14.40;;
769;SDS011;368;48.698;9.116;2023-02-15T11:02:37;17.53;;;15.83;;
769;SDS011;368;48.698;9.116;2023-02-15T11:05:22;19.30;;;14.37;;
769;SDS011;368;48.698;9.116;2023-02-15T11:07:55;16.53;;;14.83;;
769;SDS011;368;48.698;9.116;2023-02-15T11:10:27;15.83;;;14.43;;
769;SDS011;368;48.698;9.116;2023-02-15T11:12:56;14.40;;;12.90;;
769;SDS011;368;48.698;9.116;2023-02-15T11:15:25;15.23;;;13.70;;
769;SDS011;368;48.698;9.116;2023-02-15T11:17:57;19.17;;;17.37;;
769;SDS011;368;48.698;9.116;2023-02-15T11:20:30;17.20;;;15.53;;
769;SDS011;368;48.698;9.116;2023-02-15T11:23:07;17.43;;;15.17;;
769;SDS011;368;48.698;9.116;2023-02-15T11:25:40;14.77;;;13.40;;
769;SDS011;368;48.698;9.116;2023-02-15T11:28:10;15.63;;;14.03;;
769;SDS011;368;48.698;9.116;2023-02-15T11:30:45;15.60;;;14.10;;
769;SDS011;368;48.698;9.116;2023-02-15T11:33:18;15.70;;;14.20;;
769;SDS011;368;48.698;9.116;2023-02-15T11:35:50;19.47;;;15.83;;
769;SDS011;368;48.698;9.116;2023-02-15T11:38:20;17.47;;;15.80;;
769;SDS011;368;48.698;9.116;2023-02-15T11:40:51;16.83;;;15.23;;
769;SDS011;368;48.698;9.116;2023-02-15T11:43:23;17.57;;;15.87;;
769;SDS011;368;48.698;9.116;2023-02-15T11:45:56;17.60;;;16.00;;
769;SDS011;368;48.698;9.116;2023-02-15T11:48:23;19.27;;;17.33;;
769;SDS011;368;48.698;9.116;2023-02-15T11:50:51;19.90;;;17.60;;
769;SDS011;368;48.698;9.116;2023-02-15T11:53:18;20.70;;;18.50;;
769;SDS011;368;48.698;9.116;2023-02-15T11:55:49;20.60;;;18.80;;
769;SDS011;368;48.698;9.116;2023-02-15T11:58:21;20.73;;;18.60;;
769;SDS011;368;48.698;9.116;2023-02-15T12:00:54;21.47;;;19.17;;
769;SDS011;368;48.698;9.116;2023-02-15T12:03:27;25.10;;;20.07;;
769;SDS011;368;48.698;9.116;2023-02-15T12:06:01;24.17;;;20.10;;
769;SDS011;368;48.698;9.116;2023-02-15T12:08:32;20.63;;;18.50;;
769;SDS011;368;48.698;9.116;2023-02-15T12:11:05;21.27;;;18.97;;
769;SDS011;368;48.698;9.116;2023-02-15T12:13:37;28.33;;;18.40;;
769;SDS011;368;48.698;9.116;2023-02-15T12:16:20;20.83;;;18.83;;
769;SDS011;368;48.698;9.116;2023-02-15T12:18:47;19.80;;;17.57;;
769;SDS011;368;48.698;9.116;2023-02-15T12:21:23;18.47;;;16.60;;
769;SDS011;368;48.698;9.116;2023-02-15T12:23:53;19.30;;;17.30;;
769;SDS011;368;48.698;9.116;2023-02-15T12:26:25;19.20;;;17.40;;
769;SDS011;368;48.698;9.116;2023-02-15T12:28:54;20.97;;;18.07;;
769;SDS011;368;48.698;9.116;2023-02-15T12:31:26;19.63;;;17.60;;
769;SDS011;368;48.698;9.116;2023-02-15T12:33:57;20.53;;;18.63;;
769;SDS011;368;48.698;9.116;2023-02-15T12:36:30;19.80;;;17.43;;
769;SDS011;368;48.698;9.116;2023-02-15T12:39:16;20.57;;;18.53;;
769;SDS011;368;48.698;9.116;2023-02-15T12:41:46;17.10;;;15.37;;
769;SDS011;368;48.698;9.116;2023-02-15T12:44:24;19.73;;;17.80;;
769;SDS011;368;48.698;9.116;2023-02-15T12:46:57;19.17;;;17.27;;
769;SDS011;368;48.698;9.116;2023-02-15T12:49:26;18.50;;;16.80;;
769;SDS011;368;48.698;9.116;2023-02-15T12:51:55;18.87;;;17.07;;
769;SDS011;368;48.698;9.116;2023-02-15T12:54:33;18.93;;;17.10;;
769;SDS011;368;48.698;9.116;2023-02-15T12:57:13;17.50;;;15.70;;
769;SDS011;368;48.698;9.116;2023-02-15T12:59:47;17.87;;;16.40;;
769;SDS011;368;48.698;9.116;2023-02-15T13:02:16;16.07;;;14.57;;
769;SDS011;368;48.698;9.116;2023-02-15T13:04:48;12.57;;;11.27;;
769;SDS011;368;48.698;9.116;2023-02-15T13:07:17;8.30;;;7.00;;
769;SDS011;368;48.698;9.116;2023-02-15T13:09:45;10.70;;;9.60;;
769;SDS011;368;48.698;9.116;2023-02-15T13:12:16;10.90;;;9.80;;
769;SDS011;368;48.698;9.116;2023-02-15T13:14:46;12.37;;;10.90;;
769;SDS011;368;48.698;9.116;2023-02-15T13:17:16;14.23;;;12.50;;
769;SDS011;368;48.698;9.116;2023-02-15T13:19:46;17.70;;;14.17;;
769;SDS011;368;48.698;9.116;2023-02-15T13:22:19;17.37;;;15.50;;
769;SDS011;368;48.698;9.116;2023-02-15T13:24:49;16.83;;;15.13;;
769;SDS011;368;48.698;9.116;2023-02-15T13:27:20;17.13;;;15.53;;
769;SDS011;368;48.698;9.116;2023-02-15T13:29:49;17.73;;;16.03;;
769;SDS011;368;48.698;9.116;2023-02-15T13:32:24;20.60;;;17.30;;
769;SDS011;368;48.698;9.116;2023-02-15T13:34:54;18.60;;;15.73;;
769;SDS011;368;48.698;9.116;2023-02-15T13:37:29;18.10;;;15.70;;
769;SDS011;368;48.698;9.116;2023-02-15T13:40:18;18.40;;;16.57;;
769;SDS011;368;48.698;9.116;2023-02-15T13:42:51;17.70;;;16.07;;
769;SDS011;368;48.698;9.116;2023-02-15T13:45:28;17.13;;;15.63;;
769;SDS011;368;48.698;9.116;2023-02-15T13:48:08;18.50;;;16.57;;
769;SDS011;368;48.698;9.116;2023-02-15T13:50:50;21.00;;;17.63;;
769;SDS011;368;48.698;9.116;2023-02-15T13:53:35;18.10;;;16.30;;
769;SDS011;368;48.698;9.116;2023-02-15T13:56:13;17.87;;;15.77;;
769;SDS011;368;48.698;9.116;2023-02-15T14:01:42;18.70;;;16.80;;
769;SDS011;368;48.698;9.116;2023-02-15T14:07:28;20.53;;;18.33;;
769;SDS011;368;48.698;9.116;2023-02-15T14:10:12;20.57;;;17.80;;
769;SDS011;368;48.698;9.116;2023-02-15T14:12:55;21.90;;;19.63;;
769;SDS011;368;48.698;9.116;2023-02-15T14:15:55;22.07;;;19.90;;
769;SDS011;368;48.698;9.116;2023-02-15T14:18:27;22.47;;;20.17;;
769;SDS011;368;48.698;9.116;2023-02-15T14:21:04;21.53;;;19.50;;
769;SDS011;368;48.698;9.116;2023-02-15T14:23:41;22.33;;;19.87;;
769;SDS011;368;48.698;9.116;2023-02-15T14:26:21;20.80;;;18.60;;
769;SDS011;368;48.698;9.116;2023-02-15T14:28:56;20.80;;;18.00;;
769;SDS011;368;48.698;9.116;2023-02-15T14:31:33;19.53;;;17.77;;
769;SDS011;368;48.698;9.116;2023-02-15T14:34:04;17.93;;;16.10;;
769;SDS011;368;48.698;9.116;2023-02-15T14:36:38;17.10;;;15.40;;
769;SDS011;368;48.698;9.116;2023-02-15T14:39:07;20.90;;;15.17;;
769;SDS011;368;48.698;9.116;2023-02-15T14:42:04;16.90;;;15.03;;
769;SDS011;368;48.698;9.116;2023-02-15T14:44:36;15.27;;;13.87;;
769;SDS011;368;48.698;9.116;2023-02-15T14:47:09;15.90;;;14.20;;
769;SDS011;368;48.698;9.116;2023-02-15T14:49:39;14.40;;;13.07;;
769;SDS011;368;48.698;9.116;2023-02-15T14:52:06;14.40;;;13.07;;
769;SDS011;368;48.698;9.116;2023-02-15T14:57:24;14.50;;;13.00;;
769;SDS011;368;48.698;9.116;2023-02-15T14:59:57;13.77;;;12.27;;
769;SDS011;368;48.698;9.116;2023-02-15T15:02:26;13.50;;;12.20;;
769;SDS011;368;48.698;9.116;2023-02-15T15:05:06;14.83;;;13.33;;
769;SDS011;368;48.698;9.116;2023-02-15T15:07:41;16.43;;;14.40;;
769;SDS011;368;48.698;9.116;2023-02-15T15:13:34;13.90;;;12.57;;
769;SDS011;368;48.698;9.116;2023-02-15T15:18:56;14.17;;;12.67;;
769;SDS011;368;48.698;9.116;2023-02-15T15:33:11;14.63;;;11.63;;
769;SDS011;368;48.698;9.116;2023-02-15T15:35:52;14.87;;;11.80;;
769;SDS011;368;48.698;9.116;2023-02-15T15:38:33;18.10;;;14.00;;
769;SDS011;368;48.698;9.116;2023-02-15T15:41:16;16.20;;;12.50;;
769;SDS011;368;48.698;9.116;2023-02-15T15:44:08;16.43;;;13.93;;
769;SDS011;368;48.698;9.116;2023-02-15T15:50:01;14.63;;;13.17;;
769;SDS011;368;48.698;9.116;2023-02-15T15:52:37;15.30;;;13.60;;
769;SDS011;368;48.698;9.116;2023-02-15T15:55:12;16.13;;;14.40;;
769;SDS011;368;48.698;9.116;2023-02-15T15:57:42;22.53;;;15.53;;
769;SDS011;368;48.698;9.116;2023-02-15T16:00:22;16.83;;;14.47;;
769;SDS011;368;48.698;9.116;2023-02-15T16:02:56;17.17;;;15.43;;
769;SDS011;368;48.698;9.116;2023-02-15T16:05:24;18.43;;;16.03;;
769;SDS011;368;48.698;9.116;2023-02-15T16:07:51;19.77;;;17.70;;
769;SDS011;368;48.698;9.116;2023-02-15T16:10:20;20.87;;;18.53;;
769;SDS011;368;48.698;9.116;2023-02-15T16:12:48;26.60;;;21.40;;
769;SDS011;368;48.698;9.116;2023-02-15T16:15:17;27.67;;;21.60;;
769;SDS011;368;48.698;9.116;2023-02-15T16:17:47;26.03;;;20.30;;
769;SDS011;368;48.698;9.116;2023-02-15T16:20:21;23.60;;;19.47;;
769;SDS011;368;48.698;9.116;2023-02-15T16:22:52;22.97;;;19.43;;
769;SDS011;368;48.698;9.116;2023-02-15T16:25:30;24.73;;;22.07;;